Time;durP1;ratioP1;P1;durP2;ratioP2;P2;SDS_P1;SDS_P2;PMS_P1;PMS_P2;Temp;Humidity;BMP_temperature;BMP_pressure;BME280_temperature;BME280_humidity;BME280_pressure;Samples;Min_cycle;Max_cycle;Signal;HPM_P1;HPM_P2
2023/01/27 00:02:13;;;;;;;54.87;23.30;;;;;;;;;;12818957;19;20284;-68
2023/01/27 00:06:30;;;;;;;51.72;24.70;;;;;;;;;;12818713;19;20848;-68
2023/01/27 00:13:25;;;;;;;71.40;31.13;;;;;;;;;;12817240;19;20515;-69
2023/01/27 00:15:26;;;;;;;32.78;16.17;;;;;;;;;;12818418;19;20070;-68
2023/01/27 00:19:44;;;;;;;51.22;23.67;;;;;;;;;;12815600;19;20509;-68
2023/01/27 00:28:39;;;;;;;33.40;18.38;;;;;;;;;;12816290;19;19994;-69
2023/01/27 00:37:33;;;;;;;33.92;14.93;;;;;;;;;;12814082;19;20499;-68
2023/01/27 00:41:51;;;;;;;24.75;13.05;;;;;;;;;;12815742;19;20416;-68
2023/01/27 00:46:08;;;;;;;27.83;15.52;;;;;;;;;;12811881;19;20500;-68
2023/01/27 00:50:26;;;;;;;32.03;16.00;;;;;;;;;;12812406;19;20094;-68
2023/01/27 00:54:43;;;;;;;28.73;16.23;;;;;;;;;;12814675;19;20779;-68
2023/01/27 00:59:01;;;;;;;38.43;18.57;;;;;;;;;;12814181;19;20484;-68
2023/01/27 01:03:19;;;;;;;36.90;17.25;;;;;;;;;;12814299;19;20488;-68
2023/01/27 01:07:37;;;;;;;;;;;;;;;;;;12814857;19;20330;-68
2023/01/27 01:11:55;;;;;;;32.72;16.73;;;;;;;;;;12815210;19;20321;-68
2023/01/27 01:16:22;;;;;;;35.10;18.27;;;;;;;;;;12812013;19;20429;-68
2023/01/27 01:20:45;;;;;;;33.65;17.50;;;;;;;;;;12814589;19;20824;-68
2023/01/27 01:25:03;;;;;;;32.53;17.80;;;;;;;;;;12823211;19;20911;-68
2023/01/27 01:29:21;;;;;;;39.25;19.92;;;;;;;;;;12826823;19;20404;-68
2023/01/27 01:33:39;;;;;;;44.47;20.60;;;;;;;;;;12825759;19;20468;-68
2023/01/27 01:37:56;;;;;;;37.38;17.85;;;;;;;;;;12822054;19;20484;-68
2023/01/27 01:42:13;;;;;;;85.25;37.28;;;;;;;;;;12824615;19;20313;-68
2023/01/27 01:46:31;;;;;;;31.10;16.40;;;;;;;;;;12822884;19;20074;-69
2023/01/27 01:51:00;;;;;;;29.27;14.93;;;;;;;;;;12827270;19;20468;-68
2023/01/27 01:55:18;;;;;;;30.38;15.27;;;;;;;;;;12825300;19;20433;-68
2023/01/27 02:00:00;;;;;;;38.80;17.80;;;;;;;;;;12824846;19;20015;-68
2023/01/27 02:04:24;;;;;;;32.33;16.75;;;;;;;;;;12824749;19;20493;-69
2023/01/27 02:08:45;;;;;;;30.42;15.82;;;;;;;;;;12826256;19;20406;-68
2023/01/27 02:13:02;;;;;;;36.40;15.98;;;;;;;;;;12824829;19;20551;-69
2023/01/27 02:17:21;;;;;;;24.65;13.50;;;;;;;;;;12821901;19;20498;-68
2023/01/27 02:21:38;;;;;;;;;;;;;;;;;;12821454;19;20372;-68
2023/01/27 02:26:19;;;;;;;20.63;11.50;;;;;;;;;;12822891;19;20346;-68
2023/01/27 02:30:37;;;;;;;21.65;10.98;;;;;;;;;;12823389;19;20767;-68
2023/01/27 02:34:55;;;;;;;18.67;10.15;;;;;;;;;;12821272;19;20876;-69
2023/01/27 02:39:16;;;;;;;20.63;10.80;;;;;;;;;;12822489;19;20481;-68
2023/01/27 02:43:33;;;;;;;24.02;11.98;;;;;;;;;;12821776;19;20078;-68
2023/01/27 02:47:51;;;;;;;20.87;11.93;;;;;;;;;;12823335;19;20450;-68
2023/01/27 02:52:08;;;;;;;25.63;13.13;;;;;;;;;;12818089;19;20694;-68
2023/01/27 02:56:26;;;;;;;24.17;11.70;;;;;;;;;;12819700;19;20340;-69
2023/01/27 03:00:44;;;;;;;22.83;12.00;;;;;;;;;;12819262;19;20232;-68
2023/01/27 03:05:01;;;;;;;22.48;13.88;;;;;;;;;;12818386;19;20519;-68
2023/01/27 03:09:19;;;;;;;18.20;10.60;;;;;;;;;;12821138;19;20468;-69
2023/01/27 03:13:37;;;;;;;19.15;10.35;;;;;;;;;;12819472;19;20505;-69
2023/01/27 03:18:14;;;;;;;21.70;12.93;;;;;;;;;;12819696;19;20301;-68
2023/01/27 03:22:32;;;;;;;20.13;11.68;;;;;;;;;;12817779;19;20455;-67
2023/01/27 03:26:50;;;;;;;22.08;12.50;;;;;;;;;;12817985;19;21148;-68
2023/01/27 03:31:20;;;;;;;18.65;10.65;;;;;;;;;;12818653;19;20545;-69
2023/01/27 03:35:46;;;;;;;19.25;11.35;;;;;;;;;;12818343;19;20481;-69
2023/01/27 03:49:18;;;;;;;18.15;9.73;;;;;;;;;;12815019;19;20640;-68
2023/01/27 03:53:36;;;;;;;17.25;8.93;;;;;;;;;;12815271;19;20525;-68
2023/01/27 03:57:56;;;;;;;16.42;9.80;;;;;;;;;;12815538;19;20511;-68
2023/01/27 04:07:02;;;;;;;19.20;10.32;;;;;;;;;;12813984;19;20383;-68
2023/01/27 04:15:56;;;;;;;15.27;9.70;;;;;;;;;;12816477;19;20463;-68
2023/01/27 04:20:13;;;;;;;15.60;9.48;;;;;;;;;;12817268;19;20482;-69
2023/01/27 04:24:32;;;;;;;16.08;9.43;;;;;;;;;;12817657;19;20513;-69
2023/01/27 04:28:50;;;;;;;;;;;;;;;;;;12817685;19;20305;-68
2023/01/27 04:33:09;;;;;;;21.45;11.48;;;;;;;;;;12814809;19;20306;-68
2023/01/27 04:37:26;;;;;;;22.88;11.95;;;;;;;;;;12816890;19;20471;-69
2023/01/27 04:41:44;;;;;;;19.00;10.95;;;;;;;;;;12816000;19;20027;-69
2023/01/27 04:46:02;;;;;;;14.68;9.45;;;;;;;;;;12814958;19;20149;-68
2023/01/27 04:50:20;;;;;;;14.80;9.48;;;;;;;;;;12815183;19;20489;-69
2023/01/27 04:54:38;;;;;;;16.10;8.80;;;;;;;;;;12818406;19;20883;-69
2023/01/27 04:59:01;;;;;;;14.77;9.00;;;;;;;;;;12815496;19;20376;-68
2023/01/27 05:03:19;;;;;;;15.50;8.50;;;;;;;;;;12812150;19;20753;-68
2023/01/27 05:07:38;;;;;;;16.05;9.20;;;;;;;;;;12813593;19;20586;-68
2023/01/27 05:11:55;;;;;;;15.88;9.05;;;;;;;;;;12815214;19;20491;-68
2023/01/27 05:16:20;;;;;;;15.93;9.32;;;;;;;;;;12820462;19;20382;-68
2023/01/27 05:20:37;;;;;;;18.17;10.57;;;;;;;;;;12820531;19;20375;-68
2023/01/27 05:24:55;;;;;;;21.33;10.32;;;;;;;;;;12819792;19;20414;-69
2023/01/27 05:29:12;;;;;;;18.55;10.35;;;;;;;;;;12817839;19;20290;-68
2023/01/27 05:33:30;;;;;;;18.48;10.07;;;;;;;;;;12817218;19;20074;-68
2023/01/27 05:37:49;;;;;;;19.70;11.13;;;;;;;;;;12813621;19;20085;-69
2023/01/27 05:42:06;;;;;;;;;;;;;;;;;;12809101;19;20448;-68
2023/01/27 05:46:28;;;;;;;17.10;10.47;;;;;;;;;;12811198;19;20037;-68
2023/01/27 05:50:54;;;;;;;17.15;10.05;;;;;;;;;;12812835;19;20473;-69
2023/01/27 05:55:12;;;;;;;17.08;10.18;;;;;;;;;;12811605;19;20378;-68
2023/01/27 05:59:30;;;;;;;16.13;10.35;;;;;;;;;;12813291;19;20078;-67
2023/01/27 06:03:48;;;;;;;18.40;11.32;;;;;;;;;;12814817;19;20890;-69
2023/01/27 06:08:05;;;;;;;;;;;;;;;;;;12811751;19;20606;-69
2023/01/27 06:12:23;;;;;;;17.17;9.25;;;;;;;;;;12825230;19;20563;-68
2023/01/27 06:16:42;;;;;;;29.70;15.70;;;;;;;;;;12824332;19;20497;-68
2023/01/27 06:21:02;;;;;;;21.50;13.32;;;;;;;;;;12819454;19;20119;-68
2023/01/27 06:25:19;;;;;;;17.92;10.43;;;;;;;;;;12819110;19;20110;-68
2023/01/27 06:29:37;;;;;;;21.27;12.07;;;;;;;;;;12827788;19;20426;-69
2023/01/27 06:33:55;;;;;;;20.08;12.45;;;;;;;;;;12822873;19;20765;-68
2023/01/27 06:38:14;;;;;;;20.25;11.55;;;;;;;;;;12821853;19;20495;-67
2023/01/27 06:42:32;;;;;;;22.40;12.13;;;;;;;;;;12824476;19;20476;-69
2023/01/27 06:46:52;;;;;;;18.30;10.90;;;;;;;;;;12819459;19;20504;-68
2023/01/27 06:51:09;;;;;;;23.00;12.27;;;;;;;;;;12820792;19;20488;-67
2023/01/27 06:55:28;;;;;;;24.15;12.02;;;;;;;;;;12822289;19;20341;-68
2023/01/27 06:59:45;;;;;;;;;;;;;;;;;;12822843;19;20308;-68
2023/01/27 07:04:03;;;;;;;23.50;13.13;;;;;;;;;;12818127;19;20333;-68
2023/01/27 07:08:20;;;;;;;22.10;12.70;;;;;;;;;;12822949;19;20748;-68
2023/01/27 07:12:38;;;;;;;20.70;11.77;;;;;;;;;;12821424;19;20472;-67
2023/01/27 07:16:55;;;;;;;20.92;12.25;;;;;;;;;;12820893;19;20836;-68
2023/01/27 07:21:13;;;;;;;23.58;12.55;;;;;;;;;;12816814;19;20497;-68
2023/01/27 07:25:33;;;;;;;21.52;12.85;;;;;;;;;;12818859;19;20729;-67
2023/01/27 07:29:51;;;;;;;21.45;12.48;;;;;;;;;;12818818;19;20629;-68
2023/01/27 07:34:08;;;;;;;20.92;12.35;;;;;;;;;;12816724;19;20415;-68
2023/01/27 07:38:26;;;;;;;24.02;14.18;;;;;;;;;;12819397;19;20029;-68
2023/01/27 07:42:44;;;;;;;16.30;11.63;;;;;;;;;;12819854;19;20500;-68
2023/01/27 07:47:02;;;;;;;21.15;12.25;;;;;;;;;;12816260;19;20378;-68
2023/01/27 07:51:19;;;;;;;18.23;11.82;;;;;;;;;;12818379;19;20011;-67
2023/01/27 07:55:37;;;;;;;21.58;13.32;;;;;;;;;;12815462;19;20087;-68
2023/01/27 07:59:55;;;;;;;29.53;15.33;;;;;;;;;;12818641;19;20370;-67
2023/01/27 08:04:12;;;;;;;;;;;;;;;;;;12816941;19;20456;-68
2023/01/27 08:08:30;;;;;;;28.17;16.10;;;;;;;;;;12815847;19;19974;-69
2023/01/27 08:12:48;;;;;;;30.85;15.85;;;;;;;;;;12816504;19;20305;-67
2023/01/27 08:17:05;;;;;;;33.28;18.30;;;;;;;;;;12814352;19;20305;-67
2023/01/27 08:21:24;;;;;;;35.07;19.00;;;;;;;;;;12816990;19;20439;-68
2023/01/27 08:25:49;;;;;;;33.03;18.08;;;;;;;;;;12814572;19;20568;-67
2023/01/27 08:30:08;;;;;;;36.03;19.25;;;;;;;;;;12817058;19;20331;-67
2023/01/27 08:34:25;;;;;;;31.67;16.55;;;;;;;;;;12813070;19;20482;-68
2023/01/27 08:38:44;;;;;;;28.83;15.30;;;;;;;;;;12814550;19;20550;-68
2023/01/27 08:43:02;;;;;;;25.48;13.30;;;;;;;;;;12813036;19;20354;-67
2023/01/27 08:47:21;;;;;;;26.63;14.93;;;;;;;;;;12818344;19;20460;-67
2023/01/27 08:51:39;;;;;;;26.23;14.68;;;;;;;;;;12818210;19;20304;-68
2023/01/27 08:56:02;;;;;;;23.73;14.88;;;;;;;;;;12818915;19;20496;-68
2023/01/27 09:00:21;;;;;;;27.27;14.60;;;;;;;;;;12814937;19;20477;-67
2023/01/27 09:04:42;;;;;;;22.55;13.43;;;;;;;;;;12814598;19;20484;-67
2023/01/27 09:09:09;;;;;;;41.50;21.83;;;;;;;;;;12815143;19;20301;-69
2023/01/27 09:13:28;;;;;;;20.98;12.32;;;;;;;;;;12815835;19;20356;-68
2023/01/27 09:17:46;;;;;;;19.77;12.55;;;;;;;;;;12816819;19;20471;-68
2023/01/27 09:22:04;;;;;;;28.23;14.77;;;;;;;;;;12813216;19;20382;-68
2023/01/27 09:26:22;;;;;;;28.17;13.82;;;;;;;;;;12816385;19;20390;-68
2023/01/27 09:30:39;;;;;;;24.08;12.95;;;;;;;;;;12816496;19;20479;-68
2023/01/27 09:34:57;;;;;;;47.03;24.08;;;;;;;;;;12814853;19;20031;-67
2023/01/27 09:39:17;;;;;;;33.10;17.37;;;;;;;;;;12812023;19;20423;-68
2023/01/27 09:44:12;;;;;;;39.15;20.17;;;;;;;;;;12814536;19;20769;-67
2023/01/27 09:49:19;;;;;;;36.33;18.17;;;;;;;;;;12824767;19;20358;-67
2023/01/27 09:54:00;;;;;;;39.45;21.60;;;;;;;;;;12822597;19;20477;-69
2023/01/27 09:58:52;;;;;;;41.40;22.90;;;;;;;;;;12825021;19;20378;-68
2023/01/27 10:04:00;;;;;;;37.38;19.17;;;;;;;;;;12823095;19;20416;-68
2023/01/27 10:08:34;;;;;;;31.02;16.25;;;;;;;;;;12816362;19;20011;-68
2023/01/27 10:13:02;;;;;;;37.13;18.42;;;;;;;;;;12823189;19;20476;-67
2023/01/27 10:18:14;;;;;;;42.75;20.75;;;;;;;;;;12826933;19;20497;-67
2023/01/27 10:22:52;;;;;;;45.72;25.55;;;;;;;;;;12823838;19;20488;-68
2023/01/27 10:27:39;;;;;;;71.13;35.45;;;;;;;;;;12824180;19;20014;-68
2023/01/27 10:32:07;;;;;;;30.83;17.85;;;;;;;;;;12822213;19;20471;-67
2023/01/27 10:36:31;;;;;;;23.45;13.95;;;;;;;;;;12824078;19;20468;-68
2023/01/27 10:41:14;;;;;;;21.92;12.75;;;;;;;;;;12825293;19;20468;-68
2023/01/27 10:45:55;;;;;;;20.25;11.98;;;;;;;;;;12823212;19;20416;-68
2023/01/27 10:50:29;;;;;;;24.58;12.32;;;;;;;;;;12824053;19;20485;-68
2023/01/27 10:55:01;;;;;;;46.15;21.02;;;;;;;;;;12822514;19;20060;-68
2023/01/27 10:59:33;;;;;;;34.03;17.27;;;;;;;;;;12820964;19;20387;-68
2023/01/27 11:04:41;;;;;;;38.08;19.55;;;;;;;;;;12822071;19;20457;-68
2023/01/27 11:09:19;;;;;;;23.63;13.48;;;;;;;;;;12821303;19;20354;-67
2023/01/27 11:13:40;;;;;;;31.77;14.90;;;;;;;;;;12819570;19;20306;-68
2023/01/27 11:18:12;;;;;;;;;;;;;;;;;;12819638;19;20455;-68
2023/01/27 11:22:37;;;;;;;40.55;18.58;;;;;;;;;;12818343;19;20282;-68
2023/01/27 11:27:11;;;;;;;27.98;16.38;;;;;;;;;;12814032;19;20011;-68
2023/01/27 11:31:50;;;;;;;39.38;19.15;;;;;;;;;;12820104;19;20035;-69
2023/01/27 11:36:08;;;;;;;26.42;15.48;;;;;;;;;;12820643;19;20345;-69
2023/01/27 11:40:31;;;;;;;;;;;;;;;;;;12821542;19;20358;-68
2023/01/27 11:44:53;;;;;;;30.30;16.08;;;;;;;;;;12818653;19;19911;-68
2023/01/27 11:49:13;;;;;;;35.13;17.13;;;;;;;;;;12819211;19;20427;-69
2023/01/27 11:53:35;;;;;;;22.45;13.30;;;;;;;;;;12816763;19;20753;-69
2023/01/27 11:58:19;;;;;;;20.17;10.35;;;;;;;;;;12817606;19;20358;-67
2023/01/27 12:02:48;;;;;;;51.25;22.88;;;;;;;;;;12817560;19;20392;-68
2023/01/27 12:07:18;;;;;;;35.38;16.88;;;;;;;;;;12816531;19;20874;-68
2023/01/27 12:11:36;;;;;;;45.42;23.05;;;;;;;;;;12818092;19;20374;-69
2023/01/27 12:16:03;;;;;;;18.85;11.13;;;;;;;;;;12818308;19;20375;-68
2023/01/27 12:20:20;;;;;;;29.52;15.27;;;;;;;;;;12821027;19;20535;-69
2023/01/27 12:24:45;;;;;;;26.42;11.82;;;;;;;;;;12818698;19;20606;-68
2023/01/27 12:29:13;;;;;;;25.13;11.85;;;;;;;;;;12815077;19;20299;-68
2023/01/27 12:33:33;;;;;;;38.92;19.45;;;;;;;;;;12816409;19;20122;-68
2023/01/27 12:38:03;;;;;;;37.30;18.20;;;;;;;;;;12815972;19;20351;-69
2023/01/27 12:42:39;;;;;;;22.42;12.25;;;;;;;;;;12816555;19;20513;-69
2023/01/27 12:47:03;;;;;;;34.85;17.45;;;;;;;;;;12812625;19;20444;-70
2023/01/27 12:51:39;;;;;;;23.13;12.43;;;;;;;;;;12818174;19;20430;-69
2023/01/27 12:56:22;;;;;;;26.70;14.07;;;;;;;;;;12815356;19;20024;-68
2023/01/27 13:00:44;;;;;;;20.13;11.35;;;;;;;;;;12817750;19;20322;-68
2023/01/27 13:05:07;;;;;;;22.55;11.40;;;;;;;;;;12814473;19;20500;-68
2023/01/27 13:09:32;;;;;;;21.63;12.65;;;;;;;;;;12814526;19;20030;-69
2023/01/27 13:13:50;;;;;;;22.52;11.23;;;;;;;;;;12814158;19;20497;-69
2023/01/27 13:18:18;;;;;;;22.33;11.02;;;;;;;;;;12815131;19;20792;-68
2023/01/27 13:22:46;;;;;;;20.08;9.27;;;;;;;;;;12814903;19;20488;-69
2023/01/27 13:27:13;;;;;;;31.40;13.48;;;;;;;;;;12812546;19;20302;-69
2023/01/27 13:31:55;;;;;;;27.05;12.30;;;;;;;;;;12812820;19;20014;-69
2023/01/27 13:36:16;;;;;;;52.10;18.42;;;;;;;;;;12814942;19;20476;-68
2023/01/27 13:40:42;;;;;;;82.80;24.02;;;;;;;;;;12814990;19;20497;-68
2023/01/27 13:45:32;;;;;;;37.65;13.40;;;;;;;;;;12815190;19;20014;-68
2023/01/27 13:50:04;;;;;;;64.63;20.77;;;;;;;;;;12813382;19;20366;-68
2023/01/27 13:54:22;;;;;;;30.33;11.15;;;;;;;;;;12814479;19;20460;-68
2023/01/27 13:58:54;;;;;;;46.92;20.58;;;;;;;;;;12813077;19;20350;-68
2023/01/27 14:03:30;;;;;;;44.80;16.50;;;;;;;;;;12813948;19;20573;-68
2023/01/27 14:07:53;;;;;;;86.15;27.38;;;;;;;;;;12811278;19;20488;-68
2023/01/27 14:12:25;;;;;;;74.82;27.13;;;;;;;;;;12811304;19;20387;-68
2023/01/27 14:16:58;;;;;;;66.93;25.98;;;;;;;;;;12813375;19;20433;-68
2023/01/27 14:21:48;;;;;;;53.40;22.50;;;;;;;;;;12810316;19;20425;-68
2023/01/27 14:26:52;;;;;;;31.60;13.90;;;;;;;;;;12808975;19;20366;-68
2023/01/27 14:31:19;;;;;;;27.48;12.45;;;;;;;;;;12818843;19;20362;-69
2023/01/27 14:35:56;;;;;;;45.90;17.93;;;;;;;;;;12824091;19;20761;-68
2023/01/27 14:40:33;;;;;;;38.15;16.08;;;;;;;;;;12823775;19;20390;-69
2023/01/27 14:45:39;;;;;;;35.22;14.10;;;;;;;;;;12825456;19;20031;-69
2023/01/27 14:50:50;;;;;;;29.90;12.88;;;;;;;;;;12824589;19;20080;-69
2023/01/27 14:55:52;;;;;;;28.85;12.40;;;;;;;;;;12818964;19;20696;-68
2023/01/27 15:01:19;;;;;;;20.90;11.68;;;;;;;;;;12820271;19;20010;-69
2023/01/27 15:05:39;;;;;;;18.13;8.93;;;;;;;;;;12811260;19;20520;-68
2023/01/27 15:10:28;;;;;;;16.00;8.15;;;;;;;;;;12816959;19;20308;-68
2023/01/27 15:15:09;;;;;;;15.63;7.88;;;;;;;;;;12820960;19;20481;-68
2023/01/27 15:20:06;;;;;;;17.67;8.32;;;;;;;;;;12821595;19;20364;-68
2023/01/27 15:24:56;;;;;;;17.38;9.55;;;;;;;;;;12822672;19;20385;-68
2023/01/27 15:29:14;;;;;;;18.02;9.27;;;;;;;;;;12820291;19;20040;-68
2023/01/27 15:33:51;;;;;;;29.80;18.27;;;;;;;;;;12818847;19;20321;-69
2023/01/27 15:38:31;;;;;;;17.80;8.70;;;;;;;;;;12816670;19;20527;-68
2023/01/27 15:43:01;;;;;;;21.63;10.57;;;;;;;;;;12815261;19;20378;-68
2023/01/27 15:47:25;;;;;;;26.77;11.93;;;;;;;;;;12817490;19;20398;-68
2023/01/27 15:51:43;;;;;;;24.17;9.57;;;;;;;;;;12817979;19;20090;-68
2023/01/27 15:56:02;;;;;;;27.02;12.30;;;;;;;;;;12815543;19;20639;-69
2023/01/27 16:00:37;;;;;;;28.15;16.88;;;;;;;;;;12816303;19;20319;-68
2023/01/27 16:05:20;;;;;;;20.27;12.25;;;;;;;;;;12817461;19;20376;-68
2023/01/27 16:09:45;;;;;;;19.10;11.30;;;;;;;;;;12818625;19;20476;-69
2023/01/27 16:14:15;;;;;;;12.57;6.75;;;;;;;;;;12818419;19;20015;-68
2023/01/27 16:19:10;;;;;;;12.82;7.78;;;;;;;;;;12818651;19;20013;-68
2023/01/27 16:24:03;;;;;;;14.82;6.43;;;;;;;;;;12816497;19;20817;-69
2023/01/27 16:28:26;;;;;;;15.20;8.63;;;;;;;;;;12811744;19;20446;-69
2023/01/27 16:32:58;;;;;;;19.02;10.90;;;;;;;;;;12813047;19;20495;-69
2023/01/27 16:37:36;;;;;;;25.58;12.40;;;;;;;;;;12814304;19;20508;-69
2023/01/27 16:41:57;;;;;;;24.67;13.27;;;;;;;;;;12815570;19;20460;-69
2023/01/27 16:46:38;;;;;;;45.95;23.45;;;;;;;;;;12816226;19;20379;-68
2023/01/27 16:51:09;;;;;;;39.72;23.08;;;;;;;;;;12815541;19;20562;-68
2023/01/27 16:55:27;;;;;;;33.63;18.40;;;;;;;;;;12812624;19;20447;-68
2023/01/27 16:59:45;;;;;;;36.47;21.60;;;;;;;;;;12813781;19;20321;-68
2023/01/27 17:04:05;;;;;;;;;;;;;;;;;;12814319;19;20488;-69
2023/01/27 17:08:47;;;;;;;29.50;17.08;;;;;;;;;;12815153;19;20279;-68
2023/01/27 17:13:04;;;;;;;28.65;15.98;;;;;;;;;;12812132;19;20492;-68
2023/01/27 17:17:25;;;;;;;36.40;18.23;;;;;;;;;;12814268;19;20014;-67
2023/01/27 17:21:54;;;;;;;30.52;15.00;;;;;;;;;;12814455;19;20371;-68
2023/01/27 17:26:16;;;;;;;27.67;14.32;;;;;;;;;;12812050;19;20928;-68
2023/01/27 17:30:38;;;;;;;22.90;12.65;;;;;;;;;;12811774;19;20496;-68
2023/01/27 17:34:59;;;;;;;31.58;15.90;;;;;;;;;;12812766;19;20638;-68
2023/01/27 17:39:25;;;;;;;21.60;12.13;;;;;;;;;;12811499;19;20473;-68
2023/01/27 17:43:43;;;;;;;23.20;11.77;;;;;;;;;;12814025;19;20482;-68
2023/01/27 17:48:01;;;;;;;35.80;14.35;;;;;;;;;;12812005;19;20307;-69
2023/01/27 17:52:29;;;;;;;23.00;11.75;;;;;;;;;;12811321;19;20513;-69
2023/01/27 17:56:50;;;;;;;18.70;10.55;;;;;;;;;;12807545;19;20339;-69
2023/01/27 18:01:08;;;;;;;19.45;11.25;;;;;;;;;;12807628;19;20306;-68
2023/01/27 18:05:30;;;;;;;19.02;8.45;;;;;;;;;;12817226;19;20301;-67
2023/01/27 18:09:54;;;;;;;19.90;9.90;;;;;;;;;;12820257;19;20393;-68
2023/01/27 18:14:18;;;;;;;15.45;9.23;;;;;;;;;;12818244;19;20393;-68
2023/01/27 18:18:35;;;;;;;16.00;9.77;;;;;;;;;;12820096;19;20066;-68
2023/01/27 18:22:53;;;;;;;18.05;9.13;;;;;;;;;;12818571;19;20693;-68
2023/01/27 18:27:25;;;;;;;16.13;9.23;;;;;;;;;;12818987;19;20407;-68
2023/01/27 18:31:54;;;;;;;19.17;10.20;;;;;;;;;;12818832;19;20011;-68
2023/01/27 18:36:21;;;;;;;22.08;11.57;;;;;;;;;;12818228;19;20325;-68
2023/01/27 18:40:40;;;;;;;23.27;11.55;;;;;;;;;;12819803;19;20492;-68
2023/01/27 18:44:58;;;;;;;17.52;8.68;;;;;;;;;;12817762;19;20317;-69
2023/01/27 18:49:15;;;;;;;15.45;8.88;;;;;;;;;;12822672;19;20087;-68
2023/01/27 18:53:33;;;;;;;15.00;8.27;;;;;;;;;;12823478;19;20078;-68
2023/01/27 18:57:54;;;;;;;19.73;10.55;;;;;;;;;;12824571;19;20030;-68
2023/01/27 19:02:14;;;;;;;20.13;10.48;;;;;;;;;;12821188;19;20468;-68
2023/01/27 19:06:33;;;;;;;24.20;13.40;;;;;;;;;;12820995;19;20362;-69
2023/01/27 19:10:51;;;;;;;18.70;10.00;;;;;;;;;;12822243;19;20070;-68
2023/01/27 19:15:13;;;;;;;18.80;10.50;;;;;;;;;;12820258;19;20384;-68
2023/01/27 19:19:31;;;;;;;16.35;9.90;;;;;;;;;;12817844;19;20464;-69
2023/01/27 19:23:49;;;;;;;20.20;11.43;;;;;;;;;;12820616;19;20074;-68
2023/01/27 19:28:16;;;;;;;21.25;11.82;;;;;;;;;;12817823;19;20029;-68
2023/01/27 19:32:34;;;;;;;26.65;14.90;;;;;;;;;;12813292;19;20331;-68
2023/01/27 19:36:52;;;;;;;20.85;11.90;;;;;;;;;;12813632;19;20503;-68
2023/01/27 19:41:09;;;;;;;26.73;12.65;;;;;;;;;;12812009;19;20410;-68
2023/01/27 19:45:27;;;;;;;30.73;14.93;;;;;;;;;;12810643;19;20353;-69
2023/01/27 19:49:45;;;;;;;38.17;17.83;;;;;;;;;;12820276;19;20797;-68
2023/01/27 19:54:03;;;;;;;33.38;16.60;;;;;;;;;;12817136;19;20450;-68
2023/01/27 19:58:25;;;;;;;46.35;15.32;;;;;;;;;;12816923;19;20854;-67
2023/01/27 20:02:42;;;;;;;33.65;16.10;;;;;;;;;;12815029;19;20044;-67
2023/01/27 20:07:00;;;;;;;24.00;13.65;;;;;;;;;;12813910;19;20436;-68
2023/01/27 20:11:29;;;;;;;26.50;15.20;;;;;;;;;;12813980;19;20443;-69
2023/01/27 20:15:46;;;;;;;32.45;15.43;;;;;;;;;;12820662;19;20485;-67
2023/01/27 20:20:05;;;;;;;23.00;13.30;;;;;;;;;;12816482;19;20489;-68
2023/01/27 20:24:22;;;;;;;;;;;;;;;;;;12815564;19;20777;-68
2023/01/27 20:28:40;;;;;;;26.07;13.20;;;;;;;;;;12814869;19;20334;-68
2023/01/27 20:32:59;;;;;;;34.03;15.27;;;;;;;;;;12817047;19;20321;-67
2023/01/27 20:37:17;;;;;;;74.60;30.55;;;;;;;;;;12813060;19;20672;-67
2023/01/27 20:41:35;;;;;;;27.58;14.70;;;;;;;;;;12815952;19;20489;-67
2023/01/27 20:45:52;;;;;;;36.90;19.50;;;;;;;;;;12814715;19;20405;-67
2023/01/27 20:50:11;;;;;;;94.50;31.98;;;;;;;;;;12817195;19;20540;-68
2023/01/27 20:54:29;;;;;;;34.38;18.08;;;;;;;;;;12817803;19;20341;-69
2023/01/27 20:58:47;;;;;;;55.90;23.33;;;;;;;;;;12816025;19;20501;-67
2023/01/27 21:03:05;;;;;;;;;;;;;;;;;;12815553;19;20360;-68
2023/01/27 21:07:24;;;;;;;32.60;16.63;;;;;;;;;;12813642;19;20254;-68
2023/01/27 21:11:42;;;;;;;49.97;25.00;;;;;;;;;;12815624;19;20396;-68
2023/01/27 21:16:00;;;;;;;27.35;13.98;;;;;;;;;;12812566;19;20094;-68
2023/01/27 21:20:18;;;;;;;28.90;15.27;;;;;;;;;;12813213;19;20512;-68
2023/01/27 21:24:35;;;;;;;48.35;18.60;;;;;;;;;;12814388;19;20536;-69
2023/01/27 21:28:53;;;;;;;56.15;23.83;;;;;;;;;;12813469;19;20484;-67
2023/01/27 21:33:11;;;;;;;30.67;14.15;;;;;;;;;;12815369;19;20489;-69
2023/01/27 21:37:29;;;;;;;26.70;14.15;;;;;;;;;;12813141;19;20305;-69
2023/01/27 21:46:10;;;;;;;40.28;16.60;;;;;;;;;;12822687;19;20236;-68
2023/01/27 21:50:27;;;;;;;34.30;15.93;;;;;;;;;;12824968;19;20006;-69
2023/01/27 21:54:45;;;;;;;29.67;14.82;;;;;;;;;;12824817;19;20461;-69
2023/01/27 21:59:03;;;;;;;34.27;15.17;;;;;;;;;;12823287;19;20366;-68
2023/01/27 22:03:22;;;;;;;29.75;13.38;;;;;;;;;;12824602;19;20883;-68
2023/01/27 22:07:40;;;;;;;38.65;15.70;;;;;;;;;;12823950;19;20373;-68
2023/01/27 22:12:01;;;;;;;52.55;19.33;;;;;;;;;;12825059;19;20022;-69
2023/01/27 22:16:20;;;;;;;24.30;11.07;;;;;;;;;;12824659;19;20011;-69
2023/01/27 22:20:38;;;;;;;34.97;14.02;;;;;;;;;;12824979;19;20508;-68
2023/01/27 22:24:55;;;;;;;75.60;26.63;;;;;;;;;;12825176;19;20019;-68
2023/01/27 22:29:13;;;;;;;63.17;23.42;;;;;;;;;;12822217;19;20347;-67
2023/01/27 22:33:31;;;;;;;41.63;16.33;;;;;;;;;;12819634;19;20014;-68
2023/01/27 22:37:49;;;;;;;30.33;11.93;;;;;;;;;;12823314;19;20526;-69
2023/01/27 22:42:09;;;;;;;23.08;10.38;;;;;;;;;;12823443;19;20037;-69
2023/01/27 22:46:27;;;;;;;18.75;9.25;;;;;;;;;;12821667;19;20380;-68
2023/01/27 22:50:44;;;;;;;20.47;10.17;;;;;;;;;;12822130;19;20536;-68
2023/01/27 22:55:04;;;;;;;18.33;9.35;;;;;;;;;;12823137;19;20795;-69
2023/01/27 22:59:22;;;;;;;17.10;8.18;;;;;;;;;;12820059;19;20355;-68
2023/01/27 23:03:39;;;;;;;19.25;9.48;;;;;;;;;;12820637;19;20317;-68
2023/01/27 23:07:57;;;;;;;181.55;69.82;;;;;;;;;;12821240;19;21112;-69
2023/01/27 23:12:15;;;;;;;110.50;66.80;;;;;;;;;;12821719;19;20370;-68
2023/01/27 23:16:32;;;;;;;50.00;29.92;;;;;;;;;;12821543;19;20437;-69
2023/01/27 23:20:50;;;;;;;48.58;17.95;;;;;;;;;;12820990;19;20441;-69
2023/01/27 23:25:09;;;;;;;52.75;17.13;;;;;;;;;;12817690;19;20041;-69
2023/01/27 23:29:26;;;;;;;23.73;10.48;;;;;;;;;;12822602;19;20535;-68
2023/01/27 23:33:46;;;;;;;;;;;;;;;;;;12818456;19;20317;-69
2023/01/27 23:38:04;;;;;;;18.92;9.13;;;;;;;;;;12817692;19;20274;-69
2023/01/27 23:42:35;;;;;;;24.92;11.15;;;;;;;;;;12820391;19;20397;-69
2023/01/27 23:46:53;;;;;;;27.43;9.87;;;;;;;;;;12819786;19;20108;-68
2023/01/27 23:51:12;;;;;;;15.13;7.88;;;;;;;;;;12821991;19;20496;-68
2023/01/27 23:55:29;;;;;;;48.20;30.80;;;;;;;;;;12821298;19;20489;-68
2023/01/27 23:59:47;;;;;;;14.73;8.10;;;;;;;;;;12816834;19;20528;-68
